Airfield :
LOGIN :

Register | Disclaimer

   EN    FR    IT 

 










Legend :    VFR   Marginal VFR   IFR   Intensive IFR   Very Intensive IFR
Visi :
Ceiling :
>= 8 km
>= 3000ft
5 to 8 km
1000 to 3000 ft
1500m to 5 km
500 to 1000 ft
800 to 1500m
200 to 500 ft
< 800m
< 200 ft
Symbols :   Thunderstorms  Fog  Heavy snow  Heavy precipitations  Wind > 20 kt
SIGMETs :     Misc.  Thunderstorms  Icing  Turbulence  Mountain Waves  Volcanic Ashes







- Airport Elevation : 614 ft
- IATA code : CRL


EBCI - Charleroi

CURRENT METAR :
  • 200520Z 21006KT 6000 FEW024 09/08 Q1022 TEMPO 4500 BR

EXPIRED METARs :
  • 200450Z 22006KT 7000 FEW010 BKN024 09/08 Q1021 TEMPO 5000 BR BKN010
  • 200420Z 21005KT 7000 FEW007 BKN024 10/09 Q1022 TEMPO 5000 BR BKN010
  • 200350Z 23006KT 4500 BR SCT006 BKN012 10/08 Q1022 TEMPO 3000 BR BKN006
  • 200320Z 25006KT 4500 BR SCT006 BKN012 10/09 Q1022 TEMPO 3000 BR BKN006
  • 200250Z 25006KT 4500 BR SCT006 BKN012 11/10 Q1022 TEMPO 3000 BR BKN006

TAF TAF EBCI
Valid from the 20 at 06:00 until the 21 at 12:00 UTC


200500Z 2006/2112 22007KT 9999 SCT020
PROB30
TEMPO 2006/2008 3500 BR BKN007
No reported NOTAMs for that airfield.



MET'MAP, your aeronautical weather chart ! - Copyright ORBIFLY December 2007 - Disclaimer

ORBIFLY MET'MAP TEAM :

Programming & Development : Alexandra Zaïnal
Concept & Development : Baudouin d'Aumeries
Co-Development & Prog : Marc-Olivier Méhu
Technical & hardware support : Manuel Goepfert

Contact : metmap@orbifly.com




SOURCES & CREDITS :

   NOAA